sensor_id;sensor_type;location;lat;lon;timestamp;P1;durP1;ratioP1;P2;durP2;ratioP2
30408;SDS011;17207;52.960;5.916;2023-06-14T17:59:37;20.55;;;7.03;;
30408;SDS011;17207;52.960;5.916;2023-06-14T18:16:26;14.40;;;5.47;;
30408;SDS011;17207;52.960;5.916;2023-06-14T18:18:52;12.85;;;3.55;;
30408;SDS011;17207;52.960;5.916;2023-06-14T18:21:18;9.02;;;2.65;;
30408;SDS011;17207;52.960;5.916;2023-06-14T18:23:46;11.68;;;2.78;;
30408;SDS011;17207;52.960;5.916;2023-06-14T18:26:17;6.75;;;2.83;;
30408;SDS011;17207;52.960;5.916;2023-06-14T18:28:43;9.73;;;2.13;;
30408;SDS011;17207;52.960;5.916;2023-06-14T18:31:09;17.30;;;2.28;;
30408;SDS011;17207;52.960;5.916;2023-06-14T18:33:35;8.57;;;2.50;;
30408;SDS011;17207;52.960;5.916;2023-06-14T18:36:01;5.78;;;2.65;;
30408;SDS011;17207;52.960;5.916;2023-06-14T18:38:27;10.55;;;2.47;;
30408;SDS011;17207;52.960;5.916;2023-06-14T18:40:53;9.40;;;2.45;;
30408;SDS011;17207;52.960;5.916;2023-06-14T18:43:19;5.65;;;2.13;;
30408;SDS011;17207;52.960;5.916;2023-06-14T18:45:46;6.72;;;2.20;;
30408;SDS011;17207;52.960;5.916;2023-06-14T18:48:12;8.48;;;2.60;;
30408;SDS011;17207;52.960;5.916;2023-06-14T18:50:39;12.15;;;2.08;;
30408;SDS011;17207;52.960;5.916;2023-06-14T18:53:05;4.78;;;1.90;;
30408;SDS011;17207;52.960;5.916;2023-06-14T18:55:31;1.67;;;1.48;;
30408;SDS011;17207;52.960;5.916;2023-06-14T18:57:57;5.60;;;1.75;;
30408;SDS011;17207;52.960;5.916;2023-06-14T19:00:23;6.68;;;2.22;;
30408;SDS011;17207;52.960;5.916;2023-06-14T19:02:50;7.63;;;2.75;;
30408;SDS011;17207;52.960;5.916;2023-06-14T19:05:16;7.65;;;2.17;;
30408;SDS011;17207;52.960;5.916;2023-06-14T19:07:42;2.60;;;1.70;;
30408;SDS011;17207;52.960;5.916;2023-06-14T19:10:08;6.95;;;1.77;;
30408;SDS011;17207;52.960;5.916;2023-06-14T19:12:34;6.18;;;2.20;;
30408;SDS011;17207;52.960;5.916;2023-06-14T19:18:05;6.70;;;1.80;;
30408;SDS011;17207;52.960;5.916;2023-06-14T19:20:35;2.72;;;1.70;;
30408;SDS011;17207;52.960;5.916;2023-06-14T19:23:02;9.77;;;2.00;;
30408;SDS011;17207;52.960;5.916;2023-06-14T19:25:28;4.57;;;2.20;;
30408;SDS011;17207;52.960;5.916;2023-06-14T19:27:54;5.82;;;1.77;;
30408;SDS011;17207;52.960;5.916;2023-06-14T19:30:20;9.95;;;2.50;;
30408;SDS011;17207;52.960;5.916;2023-06-14T19:32:46;4.55;;;1.85;;
30408;SDS011;17207;52.960;5.916;2023-06-14T19:35:14;3.17;;;1.45;;
30408;SDS011;17207;52.960;5.916;2023-06-14T19:37:44;6.68;;;1.65;;
30408;SDS011;17207;52.960;5.916;2023-06-14T19:40:10;4.03;;;1.83;;
30408;SDS011;17207;52.960;5.916;2023-06-14T19:42:37;7.45;;;2.00;;
30408;SDS011;17207;52.960;5.916;2023-06-14T19:45:04;4.07;;;1.60;;
30408;SDS011;17207;52.960;5.916;2023-06-14T19:47:30;7.20;;;2.15;;
30408;SDS011;17207;52.960;5.916;2023-06-14T19:49:56;2.45;;;1.83;;
30408;SDS011;17207;52.960;5.916;2023-06-14T19:52:23;3.50;;;1.60;;
30408;SDS011;17207;52.960;5.916;2023-06-14T19:54:49;6.85;;;1.67;;
30408;SDS011;17207;52.960;5.916;2023-06-14T19:57:15;4.40;;;1.98;;
30408;SDS011;17207;52.960;5.916;2023-06-14T19:59:44;3.13;;;1.88;;
30408;SDS011;17207;52.960;5.916;2023-06-14T20:02:10;7.28;;;1.85;;
30408;SDS011;17207;52.960;5.916;2023-06-14T20:04:36;4.95;;;1.90;;
30408;SDS011;17207;52.960;5.916;2023-06-14T20:07:03;4.05;;;1.75;;
30408;SDS011;17207;52.960;5.916;2023-06-14T20:09:34;7.22;;;1.73;;
30408;SDS011;17207;52.960;5.916;2023-06-14T20:12:00;5.60;;;1.83;;
30408;SDS011;17207;52.960;5.916;2023-06-14T20:14:26;4.40;;;1.40;;
30408;SDS011;17207;52.960;5.916;2023-06-14T20:16:52;3.85;;;2.00;;
30408;SDS011;17207;52.960;5.916;2023-06-14T20:19:18;3.40;;;1.70;;
30408;SDS011;17207;52.960;5.916;2023-06-14T20:21:44;4.25;;;1.63;;
30408;SDS011;17207;52.960;5.916;2023-06-14T20:24:11;4.60;;;1.98;;
30408;SDS011;17207;52.960;5.916;2023-06-14T20:26:37;5.13;;;1.52;;
30408;SDS011;17207;52.960;5.916;2023-06-14T20:29:03;2.70;;;1.42;;
30408;SDS011;17207;52.960;5.916;2023-06-14T20:31:29;3.83;;;1.70;;
30408;SDS011;17207;52.960;5.916;2023-06-14T20:33:55;3.13;;;1.73;;
30408;SDS011;17207;52.960;5.916;2023-06-14T20:36:21;2.83;;;1.52;;
30408;SDS011;17207;52.960;5.916;2023-06-14T20:38:47;2.33;;;1.20;;
30408;SDS011;17207;52.960;5.916;2023-06-14T20:41:14;2.38;;;1.48;;
30408;SDS011;17207;52.960;5.916;2023-06-14T20:43:40;2.40;;;1.35;;
30408;SDS011;17207;52.960;5.916;2023-06-14T20:46:09;4.60;;;1.42;;
30408;SDS011;17207;52.960;5.916;2023-06-14T20:48:35;2.55;;;1.25;;
30408;SDS011;17207;52.960;5.916;2023-06-14T20:51:01;4.65;;;1.52;;
30408;SDS011;17207;52.960;5.916;2023-06-14T20:53:27;3.00;;;1.65;;
30408;SDS011;17207;52.960;5.916;2023-06-14T20:55:53;3.67;;;1.60;;
30408;SDS011;17207;52.960;5.916;2023-06-14T20:58:19;2.72;;;1.30;;
30408;SDS011;17207;52.960;5.916;2023-06-14T21:00:45;1.98;;;1.30;;
30408;SDS011;17207;52.960;5.916;2023-06-14T21:03:12;5.20;;;1.52;;
30408;SDS011;17207;52.960;5.916;2023-06-14T21:05:38;3.22;;;1.38;;
30408;SDS011;17207;52.960;5.916;2023-06-14T21:08:07;1.13;;;1.00;;
30408;SDS011;17207;52.960;5.916;2023-06-14T21:10:33;4.97;;;1.20;;
30408;SDS011;17207;52.960;5.916;2023-06-14T21:12:59;5.00;;;1.42;;
30408;SDS011;17207;52.960;5.916;2023-06-14T21:15:25;2.42;;;1.38;;
30408;SDS011;17207;52.960;5.916;2023-06-14T21:17:52;1.92;;;0.90;;
30408;SDS011;17207;52.960;5.916;2023-06-14T21:20:18;2.20;;;1.38;;
30408;SDS011;17207;52.960;5.916;2023-06-14T21:22:44;2.17;;;1.13;;
30408;SDS011;17207;52.960;5.916;2023-06-14T21:27:38;1.63;;;1.27;;
30408;SDS011;17207;52.960;5.916;2023-06-14T21:30:05;2.40;;;1.30;;
30408;SDS011;17207;52.960;5.916;2023-06-14T21:32:33;2.90;;;1.17;;
30408;SDS011;17207;52.960;5.916;2023-06-14T21:35:00;2.28;;;1.33;;
30408;SDS011;17207;52.960;5.916;2023-06-14T21:37:26;1.42;;;1.00;;
30408;SDS011;17207;52.960;5.916;2023-06-14T21:39:52;3.17;;;1.15;;
30408;SDS011;17207;52.960;5.916;2023-06-14T21:42:18;1.55;;;1.10;;
30408;SDS011;17207;52.960;5.916;2023-06-14T21:44:44;2.55;;;1.10;;
30408;SDS011;17207;52.960;5.916;2023-06-14T21:47:11;1.63;;;1.35;;
30408;SDS011;17207;52.960;5.916;2023-06-14T21:49:40;2.88;;;1.10;;
30408;SDS011;17207;52.960;5.916;2023-06-14T21:52:08;2.55;;;0.95;;
30408;SDS011;17207;52.960;5.916;2023-06-14T21:54:34;4.20;;;1.25;;
30408;SDS011;17207;52.960;5.916;2023-06-14T21:57:00;1.83;;;1.27;;
30408;SDS011;17207;52.960;5.916;2023-06-14T21:59:27;2.72;;;1.38;;
30408;SDS011;17207;52.960;5.916;2023-06-14T22:01:53;4.45;;;1.50;;
30408;SDS011;17207;52.960;5.916;2023-06-14T22:04:19;2.13;;;1.20;;
30408;SDS011;17207;52.960;5.916;2023-06-14T22:06:45;2.60;;;1.20;;
30408;SDS011;17207;52.960;5.916;2023-06-14T22:09:11;2.47;;;1.17;;
30408;SDS011;17207;52.960;5.916;2023-06-14T22:11:40;1.67;;;1.20;;
30408;SDS011;17207;52.960;5.916;2023-06-14T22:14:09;1.80;;;1.45;;
30408;SDS011;17207;52.960;5.916;2023-06-14T22:16:36;1.55;;;1.02;;
30408;SDS011;17207;52.960;5.916;2023-06-14T22:19:03;1.45;;;0.93;;
30408;SDS011;17207;52.960;5.916;2023-06-14T22:21:29;1.07;;;0.90;;
30408;SDS011;17207;52.960;5.916;2023-06-14T22:23:59;1.65;;;0.98;;
30408;SDS011;17207;52.960;5.916;2023-06-14T22:26:25;1.60;;;1.10;;
30408;SDS011;17207;52.960;5.916;2023-06-14T22:28:54;1.55;;;1.08;;
30408;SDS011;17207;52.960;5.916;2023-06-14T22:31:20;1.63;;;0.93;;
30408;SDS011;17207;52.960;5.916;2023-06-14T22:33:47;1.33;;;0.90;;
30408;SDS011;17207;52.960;5.916;2023-06-14T22:36:16;2.00;;;1.20;;
30408;SDS011;17207;52.960;5.916;2023-06-14T22:38:43;1.25;;;0.85;;
30408;SDS011;17207;52.960;5.916;2023-06-14T22:41:10;2.08;;;1.27;;
30408;SDS011;17207;52.960;5.916;2023-06-14T22:43:38;1.95;;;1.00;;
30408;SDS011;17207;52.960;5.916;2023-06-14T22:46:08;1.63;;;1.10;;
30408;SDS011;17207;52.960;5.916;2023-06-14T22:48:36;0.85;;;0.82;;
30408;SDS011;17207;52.960;5.916;2023-06-14T22:51:15;2.05;;;1.10;;
30408;SDS011;17207;52.960;5.916;2023-06-14T22:53:41;0.90;;;0.90;;
30408;SDS011;17207;52.960;5.916;2023-06-14T22:56:08;1.35;;;1.10;;
30408;SDS011;17207;52.960;5.916;2023-06-14T22:58:35;1.85;;;0.90;;
30408;SDS011;17207;52.960;5.916;2023-06-14T23:01:04;1.45;;;0.85;;
30408;SDS011;17207;52.960;5.916;2023-06-14T23:03:30;1.80;;;1.00;;
30408;SDS011;17207;52.960;5.916;2023-06-14T23:05:56;2.05;;;1.02;;
30408;SDS011;17207;52.960;5.916;2023-06-14T23:08:26;1.08;;;0.70;;
30408;SDS011;17207;52.960;5.916;2023-06-14T23:10:52;1.08;;;0.98;;
30408;SDS011;17207;52.960;5.916;2023-06-14T23:13:18;1.08;;;0.90;;
30408;SDS011;17207;52.960;5.916;2023-06-14T23:15:44;2.65;;;0.82;;
30408;SDS011;17207;52.960;5.916;2023-06-14T23:18:11;1.20;;;0.80;;
30408;SDS011;17207;52.960;5.916;2023-06-14T23:20:37;1.02;;;0.80;;
30408;SDS011;17207;52.960;5.916;2023-06-14T23:23:03;1.02;;;0.93;;
30408;SDS011;17207;52.960;5.916;2023-06-14T23:25:29;1.67;;;1.15;;
30408;SDS011;17207;52.960;5.916;2023-06-14T23:28:00;1.25;;;0.80;;
30408;SDS011;17207;52.960;5.916;2023-06-14T23:30:28;4.10;;;1.23;;
30408;SDS011;17207;52.960;5.916;2023-06-14T23:32:58;0.70;;;0.70;;
30408;SDS011;17207;52.960;5.916;2023-06-14T23:35:27;1.77;;;1.05;;
30408;SDS011;17207;52.960;5.916;2023-06-14T23:37:53;0.70;;;0.70;;
30408;SDS011;17207;52.960;5.916;2023-06-14T23:40:19;2.47;;;0.98;;
30408;SDS011;17207;52.960;5.916;2023-06-14T23:42:45;1.25;;;1.00;;
30408;SDS011;17207;52.960;5.916;2023-06-14T23:45:15;1.40;;;1.10;;
30408;SDS011;17207;52.960;5.916;2023-06-14T23:47:41;1.50;;;0.98;;
30408;SDS011;17207;52.960;5.916;2023-06-14T23:50:08;1.80;;;0.98;;
30408;SDS011;17207;52.960;5.916;2023-06-14T23:52:37;1.13;;;0.80;;
30408;SDS011;17207;52.960;5.916;2023-06-14T23:55:05;1.13;;;1.02;;
30408;SDS011;17207;52.960;5.916;2023-06-14T23:57:31;1.30;;;0.90;;
30408;SDS011;17207;52.960;5.916;2023-06-14T23:59:57;1.00;;;0.80;;
